GMFO/OUD METAR and TAF weather

Enter ICAO airport designator
Station Type Date Time Source
GMFO METAR 2019/08/25 02:00 UTC NOAA

GMFO 250200Z 22003KT 190V300 CAVOK 18/12 Q1017 NOSIG


Station Type Date Time Source
GMFO Decoded METAR 2019/08/25 02:00 UTC NOAA

Station name not available
Aug 24, 2019 - 10:00 PM EDT / 2019.08.25 0200 UTC
Wind: from the SW (220 degrees) at 3 MPH (3 KT) (direction variable):0
Visibility: greater than 7 mile(s):0
Temperature: 64 F (18 C)
Dew Point: 53 F (12 C)
Relative Humidity: 67%
Pressure (altimeter): 30.03 in. Hg (1017 hPa)
ob: GMFO 250200Z 22003KT 190V300 CAVOK 18/12 Q1017 NOSIG
cycle: 2

Station Type Date Time Source
GMFO TAF 2019/08/24 18:30 UTC NOAA

TAF TAF GMFO 241700Z 2418/2524 34014KT CAVOK
TEMPO 2421/2509 16005KT

Example: see airport list